Time;durP1;ratioP1;P1;durP2;ratioP2;P2;SDS_P1;SDS_P2;PMS_P1;PMS_P2;Temp;Humidity;BMP_temperature;BMP_pressure;BME280_temperature;BME280_humidity;BME280_pressure;Samples;Min_cycle;Max_cycle;Signal;HPM_P1;HPM_P2
2021/03/26 00:01:26;;;;;;;0.60;0.60;;;7.70;99.90;;;;;;6116258;23;20179;-81
2021/03/26 00:03:55;;;;;;;0.60;0.60;;;7.60;99.90;;;;;;6116715;23;20198;-81
2021/03/26 00:06:23;;;;;;;0.60;0.60;;;7.60;99.90;;;;;;6116672;23;20606;-81
2021/03/26 00:08:50;;;;;;;0.60;0.60;;;7.50;99.90;;;;;;6116426;23;20185;-81
2021/03/26 00:11:17;;;;;;;0.60;0.60;;;7.50;99.90;;;;;;6116624;23;20189;-81
2021/03/26 00:13:43;;;;;;;0.60;0.60;;;7.40;99.90;;;;;;6116240;23;20178;-81
2021/03/26 00:16:10;;;;;;;0.60;0.60;;;7.40;99.90;;;;;;6116461;23;20182;-81
2021/03/26 00:18:37;;;;;;;0.60;0.60;;;7.30;99.90;;;;;;6116212;23;20213;-82
2021/03/26 00:21:04;;;;;;;0.60;0.60;;;7.20;99.90;;;;;;6116281;23;20647;-82
2021/03/26 00:23:31;;;;;;;0.60;0.60;;;7.10;99.90;;;;;;6116282;23;20201;-82
2021/03/26 00:25:57;;;;;;;0.60;0.60;;;7.10;99.90;;;;;;6116122;23;20174;-82
2021/03/26 00:28:23;;;;;;;0.55;0.55;;;7.10;99.90;;;;;;6116326;23;20186;-82
2021/03/26 00:30:50;;;;;;;0.60;0.60;;;7.00;99.90;;;;;;6116545;23;20183;-82
2021/03/26 00:33:16;;;;;;;0.60;0.60;;;6.90;99.90;;;;;;6116196;23;20906;-82
2021/03/26 00:35:42;;;;;;;0.60;0.60;;;6.90;99.90;;;;;;6116041;23;20178;-83
2021/03/26 00:38:09;;;;;;;0.60;0.60;;;6.90;99.90;;;;;;6115939;23;20185;-83
2021/03/26 00:40:36;;;;;;;0.60;0.60;;;6.80;99.90;;;;;;6116270;23;20179;-79
2021/03/26 00:43:02;;;;;;;0.60;0.60;;;6.70;99.90;;;;;;6115880;23;20521;-81
2021/03/26 00:45:32;;;;;;;0.60;0.60;;;6.70;99.90;;;;;;6115986;23;20210;-80
2021/03/26 00:47:58;;;;;;;0.50;0.50;;;6.60;99.90;;;;;;6116054;23;20248;-80
2021/03/26 00:50:29;;;;;;;0.60;0.60;;;6.60;99.90;;;;;;6113598;23;20234;-80
2021/03/26 00:52:55;;;;;;;0.60;0.60;;;6.50;99.90;;;;;;6112545;23;20186;-80
2021/03/26 00:55:22;;;;;;;0.60;0.60;;;6.40;99.90;;;;;;6114954;23;20174;-80
2021/03/26 00:57:48;;;;;;;0.60;0.60;;;6.40;99.90;;;;;;6114690;23;20178;-80
2021/03/26 01:00:20;;;;;;;0.60;0.60;;;6.40;99.90;;;;;;6114855;23;20182;-79
2021/03/26 01:02:46;;;;;;;0.60;0.60;;;6.30;99.90;;;;;;6115254;23;20177;-79
2021/03/26 01:05:18;;;;;;;0.60;0.60;;;6.30;99.90;;;;;;6115017;23;20198;-79
2021/03/26 01:07:46;;;;;;;0.60;0.60;;;6.30;99.90;;;;;;6115257;23;20167;-79
2021/03/26 01:10:15;;;;;;;0.60;0.60;;;6.30;99.90;;;;;;6116173;23;20183;-79
2021/03/26 01:12:42;;;;;;;0.60;0.60;;;6.20;99.90;;;;;;6116130;23;20182;-80
2021/03/26 01:15:13;;;;;;;0.60;0.60;;;6.20;99.90;;;;;;6116123;23;20179;-80
2021/03/26 01:17:40;;;;;;;0.52;0.52;;;6.10;99.90;;;;;;6115475;23;20170;-80
2021/03/26 01:20:09;;;;;;;0.60;0.60;;;6.00;99.90;;;;;;6115771;23;20174;-80
2021/03/26 01:22:36;;;;;;;0.50;0.50;;;6.00;99.90;;;;;;6115472;23;20186;-80
2021/03/26 01:25:07;;;;;;;0.60;0.60;;;6.00;99.90;;;;;;6116143;23;20209;-80
2021/03/26 01:27:35;;;;;;;0.60;0.60;;;6.00;99.90;;;;;;6116396;23;20174;-80
2021/03/26 01:30:06;;;;;;;0.60;0.60;;;5.90;99.90;;;;;;6116618;23;20481;-80
2021/03/26 01:32:32;;;;;;;0.50;0.50;;;5.80;99.90;;;;;;6116157;23;20163;-80
2021/03/26 01:34:58;;;;;;;0.60;0.60;;;5.80;99.90;;;;;;6116463;23;20175;-80
2021/03/26 01:37:24;;;;;;;0.60;0.60;;;5.70;99.90;;;;;;6115958;23;20183;-81
2021/03/26 01:39:50;;;;;;;0.60;0.60;;;5.80;99.90;;;;;;6116604;23;20171;-80
2021/03/26 01:42:22;;;;;;;0.60;0.60;;;5.70;99.90;;;;;;6116101;23;20235;-80
2021/03/26 01:44:48;;;;;;;0.60;0.60;;;5.70;99.90;;;;;;6116351;23;20693;-80
2021/03/26 01:47:16;;;;;;;0.60;0.60;;;5.70;99.90;;;;;;6116529;23;20496;-80
2021/03/26 01:49:42;;;;;;;0.60;0.60;;;5.70;99.90;;;;;;6116077;23;20635;-80
2021/03/26 01:52:10;;;;;;;0.60;0.60;;;5.70;99.90;;;;;;6116553;23;20256;-81
2021/03/26 01:54:36;;;;;;;0.57;0.57;;;5.70;99.90;;;;;;6115860;23;20623;-81
2021/03/26 01:57:04;;;;;;;0.60;0.60;;;5.60;99.90;;;;;;6116469;23;20179;-81
2021/03/26 01:59:30;;;;;;;0.60;0.60;;;5.60;99.90;;;;;;6116125;23;20178;-82
2021/03/26 02:01:59;;;;;;;0.60;0.60;;;5.50;99.90;;;;;;6115766;23;20182;-80
2021/03/26 02:04:30;;;;;;;0.60;0.60;;;5.50;99.90;;;;;;6115922;23;20222;-80
2021/03/26 02:06:57;;;;;;;0.50;0.50;;;5.50;99.90;;;;;;6116017;23;20155;-80
2021/03/26 02:09:28;;;;;;;0.60;0.60;;;5.50;99.90;;;;;;6116167;23;20266;-80
2021/03/26 02:11:58;;;;;;;0.52;0.52;;;5.40;99.90;;;;;;6115950;23;20538;-80
2021/03/26 02:14:30;;;;;;;0.60;0.60;;;5.30;99.90;;;;;;6116082;23;20556;-80
2021/03/26 02:16:56;;;;;;;0.60;0.60;;;5.20;99.90;;;;;;6115816;23;20478;-79
2021/03/26 02:19:32;;;;;;;0.60;0.60;;;5.20;99.90;;;;;;6114948;23;20208;-80
2021/03/26 02:21:58;;;;;;;0.60;0.60;;;5.20;99.90;;;;;;6115708;23;20398;-80
2021/03/26 02:24:27;;;;;;;0.60;0.60;;;5.30;99.90;;;;;;6115523;23;20201;-80
2021/03/26 02:26:57;;;;;;;0.60;0.60;;;5.20;99.90;;;;;;6115415;23;20178;-80
2021/03/26 02:29:27;;;;;;;0.60;0.60;;;5.20;99.90;;;;;;6113420;23;20363;-80
2021/03/26 02:31:55;;;;;;;0.50;0.50;;;5.20;99.90;;;;;;6115956;23;20649;-80
2021/03/26 02:34:23;;;;;;;0.50;0.50;;;5.10;99.90;;;;;;6116939;23;20517;-80
2021/03/26 02:36:54;;;;;;;0.60;0.60;;;5.10;99.90;;;;;;6117107;23;20228;-80
2021/03/26 02:39:30;;;;;;;0.50;0.50;;;5.00;99.90;;;;;;6116607;23;20237;-80
2021/03/26 02:42:00;;;;;;;0.60;0.60;;;5.00;99.90;;;;;;6117058;23;20622;-80
2021/03/26 02:44:35;;;;;;;0.55;0.55;;;5.00;99.90;;;;;;6116950;23;20202;-80
2021/03/26 02:47:11;;;;;;;0.60;0.60;;;5.40;99.90;;;;;;6116513;23;20158;-80
2021/03/26 02:49:44;;;;;;;0.57;0.57;;;5.00;99.90;;;;;;6116719;23;20201;-80
2021/03/26 02:52:15;;;;;;;0.60;0.60;;;5.10;99.90;;;;;;6116251;23;20205;-80
2021/03/26 02:54:49;;;;;;;0.50;0.50;;;5.10;99.90;;;;;;6116768;23;20159;-80
2021/03/26 02:57:21;;;;;;;0.60;0.60;;;5.00;99.90;;;;;;6117275;23;20220;-80
2021/03/26 02:59:54;;;;;;;0.50;0.50;;;5.10;99.90;;;;;;6116414;23;20354;-80
2021/03/26 03:02:23;;;;;;;0.60;0.60;;;5.00;99.90;;;;;;6116357;23;20610;-80
2021/03/26 03:05:02;;;;;;;0.60;0.60;;;5.10;99.90;;;;;;6116647;23;20209;-80
2021/03/26 03:07:32;;;;;;;0.60;0.60;;;5.00;99.90;;;;;;6116371;23;20618;-81
2021/03/26 03:10:07;;;;;;;0.60;0.60;;;4.90;99.90;;;;;;6116771;23;20201;-80
2021/03/26 03:12:39;;;;;;;0.60;0.60;;;4.90;99.90;;;;;;6117479;23;20162;-80
2021/03/26 03:15:12;;;;;;;0.60;0.60;;;4.80;99.90;;;;;;6116275;23;20357;-80
2021/03/26 03:17:45;;;;;;;0.60;0.60;;;4.80;99.90;;;;;;6116690;23;20163;-80
2021/03/26 03:20:18;;;;;;;0.50;0.50;;;4.60;99.90;;;;;;6116825;23;20171;-80
2021/03/26 03:22:52;;;;;;;0.55;0.55;;;4.60;99.90;;;;;;6116410;23;20518;-80
2021/03/26 03:25:23;;;;;;;0.60;0.60;;;4.60;99.90;;;;;;6116694;23;20228;-80
2021/03/26 03:27:57;;;;;;;0.60;0.60;;;4.70;99.90;;;;;;6117383;23;20174;-80
2021/03/26 03:30:36;;;;;;;0.60;0.60;;;4.60;99.90;;;;;;6116477;23;20178;-80
2021/03/26 03:33:07;;;;;;;0.60;0.60;;;4.60;99.90;;;;;;6117062;23;20493;-80
2021/03/26 03:35:40;;;;;;;0.60;0.60;;;4.60;99.90;;;;;;6116373;23;20186;-80
2021/03/26 03:38:16;;;;;;;0.50;0.50;;;4.50;99.90;;;;;;6116716;23;20174;-80
2021/03/26 03:40:51;;;;;;;0.60;0.60;;;4.60;99.90;;;;;;6116618;23;20166;-80
2021/03/26 03:43:21;;;;;;;0.60;0.60;;;4.50;99.90;;;;;;6116697;23;20170;-82
2021/03/26 03:46:00;;;;;;;0.60;0.60;;;4.50;99.90;;;;;;6117561;23;20205;-81
2021/03/26 03:48:31;;;;;;;0.60;0.60;;;4.50;99.90;;;;;;6116458;23;20467;-81
2021/03/26 03:51:03;;;;;;;0.60;0.60;;;5.10;99.90;;;;;;6116896;23;20206;-81
2021/03/26 03:53:35;;;;;;;0.50;0.50;;;4.40;99.90;;;;;;6116419;23;20216;-80
2021/03/26 03:56:07;;;;;;;0.60;0.60;;;4.30;99.90;;;;;;6116456;23;20661;-80
2021/03/26 03:58:36;;;;;;;0.60;0.60;;;4.20;99.90;;;;;;6116517;23;20162;-80
2021/03/26 04:01:08;;;;;;;0.50;0.50;;;4.10;99.90;;;;;;6116332;23;20178;-80
2021/03/26 04:03:39;;;;;;;0.60;0.60;;;4.00;99.90;;;;;;6116273;23;20167;-80
2021/03/26 04:06:09;;;;;;;0.60;0.60;;;4.00;99.90;;;;;;6116219;23;20155;-80
2021/03/26 04:08:41;;;;;;;0.60;0.60;;;3.90;99.90;;;;;;6116402;23;20159;-80
2021/03/26 04:11:13;;;;;;;0.60;0.60;;;3.90;99.90;;;;;;6116641;23;20170;-80
2021/03/26 04:13:44;;;;;;;0.50;0.50;;;4.00;99.90;;;;;;6116373;23;20260;-80
2021/03/26 04:16:15;;;;;;;0.57;0.57;;;4.00;99.90;;;;;;6116579;23;20163;-80
2021/03/26 04:18:46;;;;;;;0.60;0.60;;;4.30;99.90;;;;;;6116230;23;20202;-80
2021/03/26 04:21:15;;;;;;;0.50;0.50;;;4.80;99.90;;;;;;6116412;23;20186;-80
2021/03/26 04:23:45;;;;;;;0.60;0.60;;;4.40;99.90;;;;;;6116036;23;20174;-80
2021/03/26 04:26:21;;;;;;;0.60;0.60;;;3.90;99.90;;;;;;6115956;23;20204;-80
2021/03/26 04:28:52;;;;;;;0.60;0.60;;;3.90;99.90;;;;;;6115931;23;20193;-80
2021/03/26 04:31:24;;;;;;;0.60;0.60;;;3.80;99.90;;;;;;6116666;23;20618;-79
2021/03/26 04:33:50;;;;;;;0.50;0.50;;;3.80;99.90;;;;;;6115871;23;20846;-80
2021/03/26 04:36:22;;;;;;;0.60;0.60;;;3.80;99.90;;;;;;6115754;23;20194;-80
2021/03/26 04:38:56;;;;;;;0.60;0.60;;;3.90;99.90;;;;;;6115923;23;20159;-80
2021/03/26 04:41:29;;;;;;;0.60;0.60;;;3.90;99.90;;;;;;6116826;23;20170;-80
2021/03/26 04:44:04;;;;;;;0.52;0.52;;;3.80;99.90;;;;;;6115726;23;20423;-80
2021/03/26 04:46:37;;;;;;;0.60;0.60;;;3.90;99.90;;;;;;6115815;23;20608;-80
2021/03/26 04:49:08;;;;;;;0.60;0.60;;;4.00;99.90;;;;;;6116739;23;20167;-80
2021/03/26 04:51:39;;;;;;;0.60;0.60;;;4.10;99.90;;;;;;6115456;23;20679;-80
2021/03/26 04:54:13;;;;;;;0.50;0.50;;;4.10;99.90;;;;;;6115754;23;20225;-81
2021/03/26 04:56:44;;;;;;;0.50;0.50;;;4.20;99.90;;;;;;6116152;23;20212;-81
2021/03/26 04:59:14;;;;;;;0.60;0.60;;;4.00;99.90;;;;;;6116134;23;20232;-81
2021/03/26 05:01:44;;;;;;;0.50;0.50;;;4.00;99.90;;;;;;6115641;23;20182;-81
2021/03/26 05:04:15;;;;;;;0.50;0.50;;;4.00;99.90;;;;;;6115875;23;20206;-80
2021/03/26 05:06:46;;;;;;;0.60;0.60;;;4.10;99.90;;;;;;6116711;23;20163;-80
2021/03/26 05:09:16;;;;;;;0.60;0.60;;;4.10;99.90;;;;;;6116061;23;20167;-80
2021/03/26 05:11:46;;;;;;;0.60;0.60;;;4.10;99.90;;;;;;6116245;23;20202;-80
2021/03/26 05:14:17;;;;;;;0.60;0.60;;;4.10;99.90;;;;;;6116072;23;20164;-80
2021/03/26 05:16:51;;;;;;;0.55;0.55;;;4.30;99.90;;;;;;6115711;23;20167;-80
2021/03/26 05:19:22;;;;;;;0.60;0.60;;;4.30;99.90;;;;;;6115692;23;20217;-81
2021/03/26 05:21:54;;;;;;;0.57;0.57;;;4.20;99.90;;;;;;6115919;23;20163;-81
2021/03/26 05:24:27;;;;;;;0.60;0.60;;;4.10;99.90;;;;;;6115925;23;20186;-81
2021/03/26 05:26:55;;;;;;;0.60;0.60;;;4.20;99.90;;;;;;6116202;23;20163;-82
2021/03/26 05:29:22;;;;;;;0.50;0.50;;;4.10;99.90;;;;;;6116178;23;20187;-80
2021/03/26 05:31:59;;;;;;;0.60;0.60;;;4.10;99.90;;;;;;6114712;23;20520;-81
2021/03/26 05:34:31;;;;;;;0.57;0.57;;;4.10;99.90;;;;;;6115829;23;20166;-82
2021/03/26 05:37:07;;;;;;;0.60;0.60;;;4.40;99.90;;;;;;6116221;23;20174;-80
2021/03/26 05:39:36;;;;;;;0.60;0.60;;;4.30;99.90;;;;;;6115914;23;20170;-80
2021/03/26 05:42:28;;;;;;;0.60;0.60;;;4.40;99.90;;;;;;6114016;23;20228;-80
2021/03/26 05:45:06;;;;;;;0.60;0.60;;;4.30;99.90;;;;;;6115311;23;20196;-80
2021/03/26 05:47:55;;;;;;;0.60;0.60;;;4.40;99.90;;;;;;6115555;23;20200;-80
2021/03/26 05:50:38;;;;;;;0.60;0.60;;;4.40;99.90;;;;;;6116033;23;20217;-80
2021/03/26 05:53:20;;;;;;;0.52;0.52;;;4.40;99.90;;;;;;6116489;23;20174;-81
2021/03/26 05:55:52;;;;;;;0.60;0.60;;;4.50;99.90;;;;;;6117453;23;20178;-80
2021/03/26 05:58:43;;;;;;;0.60;0.60;;;4.50;99.90;;;;;;6117249;23;20163;-80
2021/03/26 06:01:35;;;;;;;0.50;0.50;;;4.50;99.90;;;;;;6117441;23;20166;-81
2021/03/26 06:04:35;;;;;;;0.60;0.60;;;4.50;99.90;;;;;;6117340;23;20440;-81
2021/03/26 06:07:32;;;;;;;0.60;0.60;;;4.60;99.90;;;;;;6115862;23;20170;-82
2021/03/26 06:10:37;;;;;;;0.50;0.50;;;5.00;99.90;;;;;;6117387;23;20166;-80
2021/03/26 06:13:32;;;;;;;0.60;0.60;;;5.60;99.90;;;;;;6116732;23;20515;-80
2021/03/26 06:16:30;;;;;;;0.60;0.60;;;5.70;99.90;;;;;;6116853;23;20494;-80
2021/03/26 06:19:35;;;;;;;0.52;0.52;;;5.60;99.90;;;;;;6117364;23;20203;-79
2021/03/26 06:22:20;;;;;;;0.60;0.60;;;5.80;99.90;;;;;;6117664;23;20171;-80
2021/03/26 06:25:16;;;;;;;0.57;0.57;;;5.50;99.90;;;;;;6117929;23;20201;-80
2021/03/26 06:27:54;;;;;;;0.52;0.52;;;5.60;99.90;;;;;;6117491;23;20167;-81
2021/03/26 06:30:28;;;;;;;0.60;0.60;;;5.50;99.90;;;;;;6116330;23;20182;-81
2021/03/26 06:33:38;;;;;;;0.55;0.55;;;5.60;99.90;;;;;;6117106;23;20512;-81
2021/03/26 06:36:20;;;;;;;0.50;0.50;;;5.70;99.90;;;;;;6116973;23;20571;-81
2021/03/26 06:39:23;;;;;;;0.60;0.60;;;5.80;99.90;;;;;;6116909;23;20534;-81
2021/03/26 06:42:25;;;;;;;0.60;0.60;;;5.90;99.90;;;;;;6116638;23;20167;-80
2021/03/26 06:45:18;;;;;;;0.50;0.50;;;6.00;99.90;;;;;;6093785;23;20194;-82
2021/03/26 06:47:58;;;;;;;0.50;0.50;;;6.10;99.90;;;;;;6117981;23;20245;-81
2021/03/26 06:51:07;;;;;;;0.60;0.60;;;6.30;99.90;;;;;;6117768;23;20173;-81
2021/03/26 06:53:39;;;;;;;0.60;0.60;;;6.20;99.90;;;;;;6048930;23;20175;-81
2021/03/26 06:56:39;;;;;;;0.60;0.60;;;6.40;99.90;;;;;;6117867;23;20163;-80
2021/03/26 06:59:29;;;;;;;0.60;0.60;;;6.50;99.90;;;;;;6117983;23;20170;-80
2021/03/26 07:02:12;;;;;;;0.60;0.60;;;6.70;99.90;;;;;;6114624;23;20186;-80
2021/03/26 07:04:53;;;;;;;0.55;0.55;;;6.70;99.90;;;;;;6117349;23;20195;-80
2021/03/26 07:07:54;;;;;;;0.50;0.50;;;6.80;99.90;;;;;;6116440;23;20685;-80
2021/03/26 07:10:37;;;;;;;0.60;0.60;;;6.70;99.90;;;;;;6111754;23;20182;-82
2021/03/26 07:13:55;;;;;;;0.50;0.50;;;7.00;99.90;;;;;;6116797;23;20193;-81
2021/03/26 07:17:03;;;;;;;0.57;0.57;;;7.10;99.90;;;;;;5999146;23;20192;-81
2021/03/26 07:19:40;;;;;;;0.50;0.50;;;7.20;99.90;;;;;;5999240;23;20270;-81
2021/03/26 07:22:22;;;;;;;0.50;0.50;;;7.20;99.90;;;;;;6092754;23;20186;-80
2021/03/26 07:25:09;;;;;;;0.50;0.50;;;7.30;99.90;;;;;;6117096;23;20526;-80
2021/03/26 07:27:51;;;;;;;0.57;0.57;;;7.30;99.90;;;;;;6117252;23;20166;-80
2021/03/26 07:30:48;;;;;;;0.52;0.52;;;7.40;99.90;;;;;;6117693;23;20166;-81
2021/03/26 07:33:22;;;;;;;0.50;0.50;;;7.50;99.90;;;;;;6117227;23;20162;-81
2021/03/26 07:36:23;;;;;;;0.50;0.50;;;7.60;99.90;;;;;;6116956;23;20600;-81
2021/03/26 07:39:24;;;;;;;0.60;0.60;;;7.70;99.90;;;;;;6117420;23;20216;-82
2021/03/26 07:42:15;;;;;;;0.60;0.60;;;7.80;99.90;;;;;;6117229;23;20163;-82
2021/03/26 07:45:02;;;;;;;0.60;0.60;;;7.90;99.90;;;;;;6116982;23;20186;-83
2021/03/26 07:47:43;;;;;;;0.50;0.50;;;8.00;99.90;;;;;;6116811;23;20167;-80
2021/03/26 07:50:43;;;;;;;0.60;0.60;;;8.20;99.90;;;;;;6121707;23;20159;-81
2021/03/26 07:53:42;;;;;;;0.60;0.60;;;8.30;99.90;;;;;;6122406;23;20178;-83
2021/03/26 07:56:23;;;;;;;0.50;0.50;;;8.40;99.90;;;;;;6092047;23;20182;-86
2021/03/26 07:59:21;;;;;;;0.60;0.60;;;8.50;99.90;;;;;;6123391;23;20631;-83
2021/03/26 08:02:03;;;;;;;0.60;0.60;;;8.60;99.90;;;;;;6118941;23;20628;-84
2021/03/26 08:04:37;;;;;;;0.50;0.50;;;8.70;99.90;;;;;;6120286;23;20196;-83
2021/03/26 08:07:47;;;;;;;0.50;0.50;;;8.90;99.90;;;;;;6117815;23;20178;-82
2021/03/26 08:10:37;;;;;;;0.50;0.50;;;9.00;99.90;;;;;;6118096;23;20190;-83
2021/03/26 08:13:36;;;;;;;0.60;0.60;;;9.10;99.90;;;;;;6118657;23;20163;-86
2021/03/26 08:16:22;;;;;;;0.60;0.60;;;9.30;99.90;;;;;;6104357;23;20186;-83
2021/03/26 08:18:58;;;;;;;0.60;0.60;;;9.40;99.90;;;;;;6117681;23;20214;-83
2021/03/26 08:21:32;;;;;;;0.60;0.60;;;9.40;99.90;;;;;;6117951;23;20174;-83
2021/03/26 08:24:32;;;;;;;0.60;0.60;;;9.60;99.90;;;;;;6117651;23;20253;-83
2021/03/26 08:27:11;;;;;;;0.50;0.50;;;9.70;99.90;;;;;;6093133;23;20174;-82
2021/03/26 08:29:42;;;;;;;0.60;0.60;;;9.80;99.90;;;;;;6123086;23;20166;-84
2021/03/26 08:32:28;;;;;;;0.50;0.50;;;9.90;99.90;;;;;;6140745;23;20669;-83
2021/03/26 08:35:29;;;;;;;0.50;0.50;;;10.00;99.90;;;;;;6137377;23;20178;-84
2021/03/26 08:38:17;;;;;;;0.60;0.60;;;10.20;99.90;;;;;;6146320;23;20193;-84
2021/03/26 08:40:53;;;;;;;0.60;0.60;;;11.10;99.90;;;;;;6126466;23;20200;-81
2021/03/26 08:43:22;;;;;;;0.60;0.60;;;10.20;99.90;;;;;;6120720;23;20174;-82
2021/03/26 08:46:01;;;;;;;0.60;0.60;;;11.80;99.90;;;;;;6118583;23;20195;-83
2021/03/26 08:48:37;;;;;;;0.60;0.60;;;10.10;99.90;;;;;;6124836;23;20615;-82
2021/03/26 08:51:27;;;;;;;0.60;0.60;;;10.60;99.90;;;;;;6119259;23;20198;-82
2021/03/26 08:54:07;;;;;;;0.60;0.60;;;11.40;99.90;;;;;;6129014;23;20606;-86
2021/03/26 08:56:48;;;;;;;0.60;0.60;;;15.00;99.90;;;;;;6119180;23;20200;-82
2021/03/26 08:59:30;;;;;;;0.60;0.60;;;10.90;99.90;;;;;;6116580;23;20173;-82
2021/03/26 09:02:31;;;;;;;0.50;0.50;;;11.00;99.90;;;;;;6116654;23;20185;-82
2021/03/26 09:05:30;;;;;;;0.50;0.50;;;11.00;99.90;;;;;;6116103;23;20533;-82
2021/03/26 09:08:08;;;;;;;0.60;0.60;;;11.00;99.90;;;;;;6117330;23;20155;-81
2021/03/26 09:11:01;;;;;;;0.60;0.60;;;11.10;99.90;;;;;;6116080;23;20174;-81
2021/03/26 09:13:38;;;;;;;0.60;0.60;;;11.10;99.90;;;;;;6116399;23;20320;-82
2021/03/26 09:16:08;;;;;;;0.50;0.50;;;11.20;99.90;;;;;;6117038;23;20159;-82
2021/03/26 09:18:55;;;;;;;0.55;0.55;;;11.50;99.90;;;;;;6116137;23;20252;-82
2021/03/26 09:21:37;;;;;;;0.60;0.60;;;11.80;99.90;;;;;;6115860;23;20182;-81
2021/03/26 09:27:13;;;;;;;0.60;0.60;;;12.10;99.90;;;;;;6111717;23;20215;-80
2021/03/26 09:29:45;;;;;;;0.60;0.60;;;12.10;99.90;;;;;;6119103;23;20166;-81
2021/03/26 09:32:17;;;;;;;0.60;0.60;;;12.20;99.90;;;;;;6119393;23;20210;-82
2021/03/26 09:34:57;;;;;;;0.60;0.60;;;11.90;99.90;;;;;;6119780;23;20166;-82
2021/03/26 09:37:29;;;;;;;0.60;0.60;;;12.00;99.90;;;;;;6119623;23;20178;-82
2021/03/26 09:39:58;;;;;;;0.60;0.60;;;11.30;99.90;;;;;;6118584;23;20174;-82
2021/03/26 09:42:38;;;;;;;0.60;0.60;;;11.90;99.90;;;;;;6118650;23;20653;-82
2021/03/26 09:45:10;;;;;;;0.60;0.60;;;11.80;99.90;;;;;;6118210;23;20221;-82
2021/03/26 09:47:41;;;;;;;0.50;0.50;;;11.70;99.90;;;;;;6118927;23;20533;-82
2021/03/26 09:50:28;;;;;;;0.60;0.60;;;11.80;99.90;;;;;;6119316;23;20167;-83
2021/03/26 09:52:57;;;;;;;0.60;0.60;;;11.90;99.90;;;;;;6117019;23;20510;-83
2021/03/26 09:55:28;;;;;;;0.55;0.55;;;11.90;99.90;;;;;;6117007;23;20175;-84
2021/03/26 09:58:02;;;;;;;0.60;0.60;;;12.00;99.90;;;;;;6127068;23;20232;-83
2021/03/26 10:00:51;;;;;;;0.57;0.57;;;12.10;99.90;;;;;;6116745;23;20175;-83
2021/03/26 10:03:29;;;;;;;0.60;0.60;;;12.10;99.90;;;;;;6117505;23;20221;-85
2021/03/26 10:05:58;;;;;;;0.60;0.60;;;12.60;99.90;;;;;;6116935;23;20183;-84
2021/03/26 10:08:45;;;;;;;0.60;0.60;;;12.60;99.90;;;;;;6111547;23;20319;-84
2021/03/26 10:11:15;;;;;;;0.60;0.60;;;12.80;99.90;;;;;;6115636;23;20373;-83
2021/03/26 10:13:46;;;;;;;0.60;0.60;;;12.70;99.90;;;;;;6115828;23;20178;-84
2021/03/26 10:16:16;;;;;;;0.60;0.60;;;12.70;99.90;;;;;;6115963;23;20599;-83
2021/03/26 10:18:45;;;;;;;0.50;0.50;;;12.70;99.90;;;;;;6117014;23;20217;-82
2021/03/26 10:21:17;;;;;;;0.60;0.60;;;12.80;99.90;;;;;;6115804;23;20815;-81
2021/03/26 10:23:56;;;;;;;0.60;0.60;;;12.90;99.90;;;;;;6115925;23;20163;-82
2021/03/26 10:26:26;;;;;;;0.60;0.60;;;13.00;99.90;;;;;;6116004;23;20221;-81
2021/03/26 10:29:18;;;;;;;0.60;0.60;;;13.00;99.90;;;;;;6122849;23;20170;-80
2021/03/26 10:31:46;;;;;;;0.60;0.60;;;13.20;99.90;;;;;;6118353;23;20212;-80
2021/03/26 10:34:16;;;;;;;0.50;0.50;;;13.30;99.90;;;;;;6117570;23;20242;-82
2021/03/26 10:36:49;;;;;;;0.57;0.57;;;13.30;99.90;;;;;;6119007;23;20182;-81
2021/03/26 10:39:21;;;;;;;0.60;0.60;;;13.50;99.90;;;;;;6117284;23;20174;-81
2021/03/26 10:42:09;;;;;;;0.60;0.60;;;13.50;99.90;;;;;;6116371;23;20220;-81
2021/03/26 10:45:01;;;;;;;0.60;0.60;;;13.80;99.90;;;;;;6116613;23;20199;-82
2021/03/26 10:47:32;;;;;;;0.60;0.60;;;13.50;99.90;;;;;;6116747;23;20246;-81
2021/03/26 10:50:05;;;;;;;0.60;0.60;;;13.50;99.90;;;;;;6116808;23;20249;-81
2021/03/26 10:52:36;;;;;;;0.60;0.60;;;13.70;99.90;;;;;;6116328;23;20194;-82
2021/03/26 10:55:11;;;;;;;0.60;0.60;;;14.00;99.90;;;;;;6118262;23;20163;-83
2021/03/26 10:57:41;;;;;;;0.60;0.60;;;14.00;99.90;;;;;;6117817;23;20166;-81
2021/03/26 11:00:20;;;;;;;0.60;0.60;;;14.30;99.90;;;;;;6117349;23;20227;-82
2021/03/26 11:03:00;;;;;;;0.60;0.60;;;14.40;99.90;;;;;;6118033;23;20600;-82
2021/03/26 11:05:44;;;;;;;0.60;0.60;;;14.50;99.90;;;;;;6122974;23;20182;-82
2021/03/26 11:08:36;;;;;;;0.60;0.60;;;14.60;99.90;;;;;;6116320;23;20250;-82
2021/03/26 11:11:12;;;;;;;0.60;0.60;;;14.50;99.90;;;;;;6116026;23;20186;-81
2021/03/26 11:13:50;;;;;;;0.60;0.60;;;15.00;99.90;;;;;;6115762;23;20173;-83
2021/03/26 11:16:22;;;;;;;0.60;0.60;;;14.50;99.90;;;;;;6116216;23;20206;-83
2021/03/26 11:18:56;;;;;;;0.60;0.60;;;14.30;99.90;;;;;;6119428;23;20169;-81
2021/03/26 11:21:24;;;;;;;0.60;0.60;;;14.20;99.90;;;;;;6120238;23;20166;-82
2021/03/26 11:23:58;;;;;;;0.60;0.60;;;13.90;99.90;;;;;;6116727;23;20252;-82
2021/03/26 11:26:32;;;;;;;0.60;0.60;;;13.70;99.90;;;;;;6117159;23;20213;-82
2021/03/26 11:29:12;;;;;;;0.60;0.60;;;13.80;99.90;;;;;;6119094;23;20166;-85
2021/03/26 11:31:47;;;;;;;0.60;0.60;;;14.20;99.90;;;;;;6122377;23;20677;-83
2021/03/26 11:34:29;;;;;;;0.60;0.60;;;14.20;99.90;;;;;;6116243;23;20166;-83
2021/03/26 11:37:16;;;;;;;0.60;0.60;;;14.00;99.90;;;;;;6117190;23;20635;-85
2021/03/26 11:43:08;;;;;;;0.60;0.60;;;15.00;99.90;;;;;;6124158;23;20198;-84
2021/03/26 11:45:40;;;;;;;0.60;0.60;;;16.80;99.90;;;;;;6128037;23;20198;-83
2021/03/26 11:48:21;;;;;;;0.60;0.60;;;15.60;99.90;;;;;;6116324;23;20860;-81
2021/03/26 11:51:06;;;;;;;0.60;0.60;;;16.20;99.90;;;;;;6116667;23;20595;-84
2021/03/26 11:53:37;;;;;;;0.60;0.60;;;14.80;99.90;;;;;;6121510;23;20182;-80
2021/03/26 11:56:24;;;;;;;0.60;0.60;;;15.80;99.90;;;;;;6125703;23;20163;-84
2021/03/26 11:59:23;;;;;;;0.60;0.60;;;15.90;99.90;;;;;;6119450;23;20155;-84
2021/03/26 12:02:10;;;;;;;0.55;0.55;;;16.30;99.90;;;;;;6083917;23;20229;-83
2021/03/26 12:04:40;;;;;;;0.60;0.60;;;16.30;99.90;;;;;;6118838;23;20186;-82
2021/03/26 12:07:16;;;;;;;0.60;0.60;;;15.80;99.90;;;;;;6123093;23;20177;-84
2021/03/26 12:09:54;;;;;;;0.60;0.60;;;16.20;99.90;;;;;;6119971;23;20194;-84
2021/03/26 12:15:34;;;;;;;0.60;0.60;;;16.60;99.90;;;;;;6127950;23;20178;-83
2021/03/26 12:18:33;;;;;;;0.60;0.60;;;14.50;99.90;;;;;;6137086;23;20216;-83
2021/03/26 12:21:13;;;;;;;0.60;0.60;;;16.60;99.90;;;;;;6136868;23;20170;-84
2021/03/26 12:23:45;;;;;;;0.60;0.60;;;16.30;99.90;;;;;;6117372;23;20186;-81
2021/03/26 12:26:23;;;;;;;0.60;0.60;;;15.60;99.90;;;;;;6117344;23;20205;-80
2021/03/26 12:29:18;;;;;;;0.60;0.60;;;15.20;99.90;;;;;;6118304;23;20162;-79
2021/03/26 12:31:54;;;;;;;0.60;0.60;;;14.90;99.90;;;;;;6050301;23;20182;-81
2021/03/26 12:34:46;;;;;;;0.60;0.60;;;14.80;99.90;;;;;;6117197;23;20625;-80
2021/03/26 12:37:24;;;;;;;0.60;0.60;;;14.70;99.90;;;;;;6122830;23;20186;-82
2021/03/26 12:40:01;;;;;;;0.60;0.60;;;13.70;99.90;;;;;;6095451;23;20178;-81
2021/03/26 12:42:44;;;;;;;0.60;0.60;;;16.20;99.90;;;;;;6094065;23;20167;-81
2021/03/26 12:45:17;;;;;;;0.60;0.60;;;15.10;99.90;;;;;;6089465;23;20195;-81
2021/03/26 12:47:47;;;;;;;0.60;0.60;;;15.40;99.90;;;;;;6087687;23;20167;-81
2021/03/26 12:50:21;;;;;;;0.60;0.60;;;16.00;99.90;;;;;;6087579;23;20167;-81
2021/03/26 12:52:56;;;;;;;0.60;0.60;;;16.20;99.90;;;;;;6087554;23;20167;-82
2021/03/26 12:55:33;;;;;;;0.60;0.60;;;15.80;99.90;;;;;;6087479;23;20803;-81
2021/03/26 12:58:16;;;;;;;0.60;0.60;;;16.50;99.90;;;;;;6088198;23;20543;-81
2021/03/26 13:00:47;;;;;;;0.60;0.60;;;17.40;99.90;;;;;;6087253;23;20174;-81
2021/03/26 13:03:22;;;;;;;0.60;0.60;;;17.40;99.90;;;;;;6081947;23;20667;-81
2021/03/26 13:06:10;;;;;;;0.60;0.60;;;16.80;99.90;;;;;;6089688;23;20183;-82
2021/03/26 13:08:40;;;;;;;0.60;0.60;;;16.20;99.90;;;;;;6088936;23;20164;-82
2021/03/26 13:11:16;;;;;;;0.60;0.60;;;15.90;99.90;;;;;;6089187;23;20179;-81
2021/03/26 13:13:55;;;;;;;0.55;0.55;;;15.70;99.90;;;;;;6086779;23;20197;-81
2021/03/26 13:16:40;;;;;;;0.60;0.60;;;15.90;99.90;;;;;;6097716;23;20175;-79
2021/03/26 13:19:08;;;;;;;0.60;0.60;;;15.70;99.90;;;;;;6087773;23;20514;-81
2021/03/26 13:21:44;;;;;;;0.60;0.60;;;15.60;99.90;;;;;;6087749;23;20648;-82
2021/03/26 13:24:27;;;;;;;0.60;0.60;;;16.00;99.90;;;;;;6087566;23;20179;-81
2021/03/26 13:27:29;;;;;;;0.60;0.60;;;16.10;99.90;;;;;;6089629;23;20600;-82
2021/03/26 13:30:02;;;;;;;0.60;0.60;;;16.40;99.90;;;;;;6090075;23;20600;-80
2021/03/26 13:32:40;;;;;;;0.60;0.60;;;16.90;99.90;;;;;;6090500;23;20496;-81
2021/03/26 13:35:12;;;;;;;0.55;0.55;;;17.20;99.90;;;;;;6090166;23;20743;-81
2021/03/26 13:37:42;;;;;;;0.60;0.60;;;17.70;99.90;;;;;;6089890;23;20282;-80
2021/03/26 13:40:11;;;;;;;0.60;0.60;;;17.90;99.90;;;;;;6090645;23;20175;-83
2021/03/26 13:42:42;;;;;;;0.60;0.60;;;17.70;99.90;;;;;;6090834;23;20185;-83
2021/03/26 13:45:14;;;;;;;0.60;0.60;;;17.50;99.90;;;;;;6099764;23;20188;-80
2021/03/26 13:47:46;;;;;;;0.60;0.60;;;17.00;99.90;;;;;;6089006;23;20179;-82
2021/03/26 13:50:33;;;;;;;0.60;0.60;;;16.60;99.90;;;;;;6089266;23;20171;-81
2021/03/26 13:53:12;;;;;;;0.60;0.60;;;16.30;99.90;;;;;;6089806;23;20242;-81